METAR KOAJ 192315Z AUTO 03006KT 5SM CLR 04/01 A3009 RMK AO1 P0005 
METAR KOAJ 192255Z AUTO 01005KT 5SM CLR 03/01 A3010 RMK AO1 P0006 
METAR KOAJ 192215Z AUTO 02008KT 5SM CLR 03/00 A3005 RMK AO1 P0003 
METAR KOAJ 192155Z AUTO 02006KT 5SM CLR 03/01 A3008 RMK AO1 P0007 
METAR KOAJ 192135Z AUTO 01006KT 3SM CLR 03/00 A3009 RMK AO1 P0005 
METAR KOAJ 192055Z AUTO 03007KT 3SM FEW004 FEW008 03/01 A3008 RMK AO1 P0011 60023 57027 
METAR KOAJ 192035Z AUTO 36004KT 2 1/2SM FEW010 03/00 A3011 RMK AO1 P0007 
METAR KOAJ 192015Z AUTO 02007KT 3SM CLR 03/00 A3010 RMK AO1 P0003 
METAR KOAJ 191955Z AUTO 01007KT 4SM CLR 03/01 A3012 RMK AO1 P0006 
METAR KOAJ 191935Z AUTO 02008KT 5SM CLR 03/M01 A3011 RMK AO1 P0003 
METAR KOAJ 191915Z AUTO 02010G15KT 5SM CLR 03/M01 A3010 RMK AO1 P0001 
METAR KOAJ 191855Z AUTO 03011KT 9SM CLR 04/M01 A3010 RMK AO1 P0006 
METAR KOAJ 191835Z AUTO 04011G17KT 4SM FEW010 04/00 A3011 RMK AO1 P0006 
METAR KOAJ 191815Z AUTO 02008KT 3SM SCT010 04/00 A3015 RMK AO1 P0003 
METAR KOAJ 191755Z AUTO 01008KT 3SM FEW010 SCT029 04/00 A3016 RMK AO1 P0007 60014 10060 20040 57007 
METAR KOAJ 191735Z AUTO 02009KT 3SM FEW010 SCT019 SCT029 04/00 A3015 RMK AO1 P0004 
METAR KOAJ 191715Z AUTO 02009KT 3SM FEW015 SCT024 BKN030 04/00 A3016 RMK AO1 P0002 
METAR KOAJ 191655Z AUTO 01008KT 2 1/2SM FEW011 SCT020 BKN027 04/00 A3019 RMK AO1 P0007 
METAR KOAJ 191635Z AUTO 01008KT 2 1/2SM SCT020 BKN025 BKN036 04/00 A3019 RMK AO1 P0003 
METAR KOAJ 191615Z AUTO 03008KT 3SM FEW025 FEW032 FEW038 05/00 A3018 RMK AO1 
METAR KOAJ 191615Z AUTO 03008KT 3SM FEW025 FEW032 FEW038 05/00 A3018 RMK AO1 
METAR KOAJ 191555Z AUTO 03010G14KT 9SM CLR 05/01 A3017 RMK AO1 
METAR KOAJ 191535Z AUTO 04009KT 5SM FEW027 05/01 A3016 RMK AO1 
METAR KOAJ 191515Z AUTO 02006KT 10SM CLR 05/01 A3019 RMK AO1 
METAR KOAJ 191455Z AUTO 02004KT 8SM CLR 05/01 A3018 RMK AO1 52007 
METAR KOAJ 191435Z AUTO 03005KT 7SM CLR 05/01 A3018 RMK AO1 
METAR KOAJ 191415Z AUTO 02004KT 7SM CLR 05/01 A3019 RMK AO1 
METAR KOAJ 191355Z AUTO 02004KT 10SM CLR 05/01 A3017 RMK AO1 
METAR KOAJ 191335Z AUTO 04004KT 7SM CLR 05/01 A3017 RMK AO1 
METAR KOAJ 191315Z AUTO 03004KT 6SM CLR 04/01 A3017 RMK AO1 
METAR KOAJ 191255Z AUTO 01003KT 5SM CLR 04/01 A3017 RMK AO1 
METAR KOAJ 191235Z AUTO 01003KT 5SM CLR 04/01 A3018 RMK AO1 
METAR KOAJ 191215Z AUTO 02003KT 10SM CLR 04/01 A3017 RMK AO1 
METAR KOAJ 191155Z AUTO 04004KT 9SM CLR 04/01 A3016 RMK AO1 10060 20040 57007 
METAR KOAJ 191135Z AUTO 02003KT 10SM CLR 04/01 A3017 RMK AO1 
METAR KOAJ 191115Z AUTO 00000KT 10SM CLR 04/01 A3017 RMK AO1 
METAR KOAJ 191035Z AUTO 01003KT 8SM CLR 04/01 A3017 RMK AO1 
METAR KOAJ 191015Z AUTO 35003KT 9SM CLR 04/01 A3018 RMK AO1 
METAR KOAJ 190955Z AUTO 36003KT 10SM CLR 04/01 A3018 RMK AO1 
METAR KOAJ 190935Z AUTO 34003KT 9SM CLR 04/01 A3018 RMK AO1 
METAR KOAJ 190855Z AUTO 00000KT 9SM CLR 04/01 A3018 RMK AO1 54000 
METAR KOAJ 190835Z AUTO 02003KT 10SM CLR 04/01 A3017 RMK AO1 
METAR KOAJ 190815Z AUTO 00000KT 10SM CLR 05/00 A3018 RMK AO1 
METAR KOAJ 190815Z AUTO 00000KT 10SM CLR 05/00 A3018 RMK AO1 
METAR KOAJ 190755Z AUTO 33005KT 10SM CLR 05/00 A3018 RMK AO1 
METAR KOAJ 190735Z AUTO 33004KT 10SM CLR 05/00 A3017 RMK AO1 
METAR KOAJ 190715Z AUTO 32005KT 10SM CLR 05/00 A3018 RMK AO1 
METAR KOAJ 190655Z AUTO 33006KT 10SM CLR 05/01 A3018 RMK AO1 
METAR KOAJ 190635Z AUTO 32004KT 10SM CLR 05/01 A3018 RMK AO1 
METAR KOAJ 190635Z AUTO 32004KT 10SM CLR 05/01 A3018 RMK AO1 
METAR KOAJ 190615Z AUTO 32004KT 10SM CLR 06/01 A3017 RMK AO1 
METAR KOAJ 190555Z AUTO 32006KT 10SM CLR 06/02 A3018 RMK AO1 10070 20060 57007 
METAR KOAJ 190555Z AUTO 32006KT 10SM CLR 06/02 A3018 RMK AO1 10070 20060 57007 
METAR KOAJ 190535Z AUTO 29003KT 10SM CLR 06/02 A3017 RMK AO1 
METAR KOAJ 190515Z AUTO 00000KT 10SM CLR 06/02 A3015 RMK AO1 
METAR KOAJ 190455Z AUTO 19003KT 10SM CLR 06/02 A3014 RMK AO1 
METAR KOAJ 190435Z AUTO 00000KT 9SM CLR 06/03 A3014 RMK AO1 
METAR KOAJ 190415Z AUTO 00000KT 10SM CLR 06/02 A3015 RMK AO1 
METAR KOAJ 190355Z AUTO 00000KT 10SM CLR 06/02 A3018 RMK AO1 
METAR KOAJ 190335Z AUTO 19004KT 10SM CLR 06/03 A3019 RMK AO1 
METAR KOAJ 190315Z AUTO 19003KT 10SM CLR 06/02 A3018 RMK AO1 
METAR KOAJ 190255Z AUTO 24003KT 10SM CLR 06/03 A3020 RMK AO1 52010 
METAR KOAJ 190235Z AUTO 00000KT 10SM CLR 06/03 A3019 RMK AO1 
METAR KOAJ 190215Z AUTO 28003KT 10SM CLR 07/02 A3021 RMK AO1 
METAR KOAJ 190155Z AUTO 28003KT 10SM CLR 06/02 A3021 RMK AO1 
METAR KOAJ 190135Z AUTO 00000KT 10SM CLR 07/01 A3020 RMK AO1 
METAR KOAJ 190115Z AUTO 30003KT 10SM CLR 07/00 A3021 RMK AO1 
METAR KOAJ 190055Z AUTO 33003KT 10SM CLR 07/00 A3019 RMK AO1 
METAR KOAJ 190035Z AUTO 30003KT 10SM CLR 07/01 A3020 RMK AO1 
METAR KOAJ 190015Z AUTO 27003KT 10SM CLR 07/01 A3018 RMK AO1 
METAR KOAJ 182355Z AUTO 00000KT 10SM CLR 07/02 A3017 RMK AO1 10090 20070 401100010 57007 
METAR KOAJ 182335Z AUTO 00000KT 10SM CLR 07/02 A3017 RMK AO1 
METAR KOAJ 182315Z AUTO 00000KT 10SM CLR 07/01 A3017 RMK AO1 
METAR KOAJ 182255Z AUTO 00000KT 10SM CLR 07/02 A3017 RMK AO1 
METAR KOAJ 182235Z AUTO 00000KT 10SM CLR 07/02 A3018 RMK AO1 
METAR KOAJ 182215Z AUTO 00000KT 10SM CLR 07/01 A3018 RMK AO1 
METAR KOAJ 182155Z AUTO 27003KT 10SM CLR 08/01 A3019 RMK AO1 
METAR KOAJ 182135Z AUTO 26003KT 10SM CLR 08/M01 A3019 RMK AO1 
METAR KOAJ 182115Z AUTO 00000KT 10SM CLR 08/M01 A3019 RMK AO1 
METAR KOAJ 182055Z AUTO 31003KT 10SM CLR 09/M02 A3019 RMK AO1 54000 
METAR KOAJ 182035Z AUTO 28004KT 10SM CLR 09/M02 A3020 RMK AO1 
METAR KOAJ 182015Z AUTO 32003KT 10SM CLR 09/M01 A3020 RMK AO1 
METAR KOAJ 181955Z AUTO 00000KT 10SM CLR 09/M02 A3019 RMK AO1 
METAR KOAJ 181935Z AUTO 32004KT 10SM CLR 09/M02 A3019 RMK AO1 
METAR KOAJ 181915Z AUTO 33003KT 10SM CLR 09/M02 A3019 RMK AO1 
METAR KOAJ 181855Z AUTO 00000KT 10SM CLR 09/M02 A3019 RMK AO1 
METAR KOAJ 181835Z AUTO 00000KT 10SM CLR 08/M02 A3018 RMK AO1 
METAR KOAJ 181815Z AUTO 00000KT 10SM CLR 08/M02 A3019 RMK AO1 
METAR KOAJ 181755Z AUTO 04005KT 10SM CLR 08/M02 A3019 RMK AO1 10090 20010 57030 
METAR KOAJ 181735Z AUTO 03004KT 10SM CLR 08/M02 A3021 RMK AO1 
METAR KOAJ 181715Z AUTO 03007KT 10SM CLR 08/M02 A3022 RMK AO1 
METAR KOAJ 181655Z AUTO 02005KT 10SM CLR 08/M03 A3023 RMK AO1 
METAR KOAJ 181635Z AUTO 05004KT 10SM CLR 08/M02 A3023 RMK AO1 
METAR KOAJ 181615Z AUTO 02007KT 10SM CLR 08/M03 A3024 RMK AO1 
METAR KOAJ 181555Z AUTO 06007KT 010V070 10SM CLR 08/M03 A3025 RMK AO1 
METAR KOAJ 181535Z AUTO 03007KT 10SM CLR 08/M03 A3026 RMK AO1 
METAR KOAJ 181515Z AUTO 05008KT 10SM CLR 07/M03 A3026 RMK AO1 
METAR KOAJ 181455Z AUTO 01009KT 10SM CLR 07/M04 A3028 RMK AO1 52014